sensor_id;sensor_type;location;lat;lon;timestamp;temperature;humidity
6206;DHT22;3136;48.788;9.772;2023-09-12T00:00:30;15.50;97.90
6206;DHT22;3136;48.788;9.772;2023-09-12T00:02:56;15.40;74.90
6206;DHT22;3136;48.788;9.772;2023-09-12T00:05:21;15.40;65.70
6206;DHT22;3136;48.788;9.772;2023-09-12T00:07:47;15.40;92.80
6206;DHT22;3136;48.788;9.772;2023-09-12T00:10:13;15.30;99.90
6206;DHT22;3136;48.788;9.772;2023-09-12T00:12:38;15.30;99.90
6206;DHT22;3136;48.788;9.772;2023-09-12T00:15:04;15.30;99.90
6206;DHT22;3136;48.788;9.772;2023-09-12T00:17:30;15.30;99.90
6206;DHT22;3136;48.788;9.772;2023-09-12T00:19:55;15.30;99.90
6206;DHT22;3136;48.788;9.772;2023-09-12T00:22:21;15.30;99.90
6206;DHT22;3136;48.788;9.772;2023-09-12T00:24:46;15.30;99.90
6206;DHT22;3136;48.788;9.772;2023-09-12T00:27:12;15.30;99.90
6206;DHT22;3136;48.788;9.772;2023-09-12T00:29:37;15.30;99.90
6206;DHT22;3136;48.788;9.772;2023-09-12T00:32:03;15.20;99.90
6206;DHT22;3136;48.788;9.772;2023-09-12T00:34:29;15.20;99.90
6206;DHT22;3136;48.788;9.772;2023-09-12T00:36:54;15.20;99.90
6206;DHT22;3136;48.788;9.772;2023-09-12T00:39:20;15.20;99.90
6206;DHT22;3136;48.788;9.772;2023-09-12T00:41:45;15.20;99.90
6206;DHT22;3136;48.788;9.772;2023-09-12T00:44:11;14.30;99.90
6206;DHT22;3136;48.788;9.772;2023-09-12T00:46:37;15.10;99.90
6206;DHT22;3136;48.788;9.772;2023-09-12T00:49:05;15.10;99.90
6206;DHT22;3136;48.788;9.772;2023-09-12T00:51:32;15.10;99.90
6206;DHT22;3136;48.788;9.772;2023-09-12T00:53:58;15.10;99.90
6206;DHT22;3136;48.788;9.772;2023-09-12T00:56:24;15.00;99.90
6206;DHT22;3136;48.788;9.772;2023-09-12T00:58:50;15.00;99.90
6206;DHT22;3136;48.788;9.772;2023-09-12T01:01:18;15.00;99.90
6206;DHT22;3136;48.788;9.772;2023-09-12T01:03:43;14.90;99.90
6206;DHT22;3136;48.788;9.772;2023-09-12T01:06:09;14.90;99.90
6206;DHT22;3136;48.788;9.772;2023-09-12T01:08:36;14.90;99.90
6206;DHT22;3136;48.788;9.772;2023-09-12T01:11:04;14.90;99.90
6206;DHT22;3136;48.788;9.772;2023-09-12T01:13:30;15.00;99.90
6206;DHT22;3136;48.788;9.772;2023-09-12T01:15:55;14.90;99.90
6206;DHT22;3136;48.788;9.772;2023-09-12T01:18:21;14.90;99.90
6206;DHT22;3136;48.788;9.772;2023-09-12T01:26:46;14.80;1.00
6206;DHT22;3136;48.788;9.772;2023-09-12T01:29:15;14.80;1.00
6206;DHT22;3136;48.788;9.772;2023-09-12T01:31:42;14.80;1.00
6206;DHT22;3136;48.788;9.772;2023-09-12T01:34:12;14.80;1.00
6206;DHT22;3136;48.788;9.772;2023-09-12T01:36:38;14.80;1.00
6206;DHT22;3136;48.788;9.772;2023-09-12T01:39:04;14.80;1.00
6206;DHT22;3136;48.788;9.772;2023-09-12T01:41:31;14.80;1.00
6206;DHT22;3136;48.788;9.772;2023-09-12T01:43:59;14.70;1.00
6206;DHT22;3136;48.788;9.772;2023-09-12T01:46:26;14.70;1.00
6206;DHT22;3136;48.788;9.772;2023-09-12T01:48:54;14.70;1.00
6206;DHT22;3136;48.788;9.772;2023-09-12T01:51:22;14.70;1.00
6206;DHT22;3136;48.788;9.772;2023-09-12T01:53:48;14.70;1.00
6206;DHT22;3136;48.788;9.772;2023-09-12T01:56:14;14.70;1.00
6206;DHT22;3136;48.788;9.772;2023-09-12T01:58:40;14.70;1.00
6206;DHT22;3136;48.788;9.772;2023-09-12T02:01:05;14.60;1.00
6206;DHT22;3136;48.788;9.772;2023-09-12T02:03:31;14.60;1.00
6206;DHT22;3136;48.788;9.772;2023-09-12T02:05:56;14.60;1.00
6206;DHT22;3136;48.788;9.772;2023-09-12T02:08:22;14.60;1.00
6206;DHT22;3136;48.788;9.772;2023-09-12T02:10:48;14.60;1.00
6206;DHT22;3136;48.788;9.772;2023-09-12T02:13:13;14.60;1.00
6206;DHT22;3136;48.788;9.772;2023-09-12T02:15:39;14.60;1.00
6206;DHT22;3136;48.788;9.772;2023-09-12T02:18:04;14.60;1.00
6206;DHT22;3136;48.788;9.772;2023-09-12T02:20:32;14.60;1.00
6206;DHT22;3136;48.788;9.772;2023-09-12T02:22:58;14.60;1.00
6206;DHT22;3136;48.788;9.772;2023-09-12T02:25:24;14.60;1.00
6206;DHT22;3136;48.788;9.772;2023-09-12T02:27:49;14.60;1.00
6206;DHT22;3136;48.788;9.772;2023-09-12T02:30:15;14.60;1.00
6206;DHT22;3136;48.788;9.772;2023-09-12T02:32:42;14.60;1.00
6206;DHT22;3136;48.788;9.772;2023-09-12T02:35:08;14.60;1.00
6206;DHT22;3136;48.788;9.772;2023-09-12T02:37:33;14.50;1.00
6206;DHT22;3136;48.788;9.772;2023-09-12T02:39:59;14.50;1.00
6206;DHT22;3136;48.788;9.772;2023-09-12T02:42:24;14.50;1.00
6206;DHT22;3136;48.788;9.772;2023-09-12T02:44:50;14.50;1.00
6206;DHT22;3136;48.788;9.772;2023-09-12T02:47:17;14.50;1.00
6206;DHT22;3136;48.788;9.772;2023-09-12T02:49:43;14.50;1.00
6206;DHT22;3136;48.788;9.772;2023-09-12T02:52:08;14.50;1.00
6206;DHT22;3136;48.788;9.772;2023-09-12T02:54:34;14.40;1.00
6206;DHT22;3136;48.788;9.772;2023-09-12T02:57:00;14.40;1.00
6206;DHT22;3136;48.788;9.772;2023-09-12T02:59:25;14.40;1.00
6206;DHT22;3136;48.788;9.772;2023-09-12T03:01:51;14.40;1.00
6206;DHT22;3136;48.788;9.772;2023-09-12T03:04:16;14.40;1.00
6206;DHT22;3136;48.788;9.772;2023-09-12T03:06:42;14.40;1.00
6206;DHT22;3136;48.788;9.772;2023-09-12T03:09:09;14.40;1.00
6206;DHT22;3136;48.788;9.772;2023-09-12T03:11:35;14.40;1.00
6206;DHT22;3136;48.788;9.772;2023-09-12T03:14:00;14.40;1.00
6206;DHT22;3136;48.788;9.772;2023-09-12T03:16:26;14.40;1.00
6206;DHT22;3136;48.788;9.772;2023-09-12T03:18:51;14.30;1.00
6206;DHT22;3136;48.788;9.772;2023-09-12T03:21:17;14.30;1.00
6206;DHT22;3136;48.788;9.772;2023-09-12T03:23:42;14.20;1.00
6206;DHT22;3136;48.788;9.772;2023-09-12T03:26:08;14.20;1.00
6206;DHT22;3136;48.788;9.772;2023-09-12T03:28:34;14.20;1.00
6206;DHT22;3136;48.788;9.772;2023-09-12T03:31:07;14.20;1.00
6206;DHT22;3136;48.788;9.772;2023-09-12T03:33:33;14.20;1.00
6206;DHT22;3136;48.788;9.772;2023-09-12T03:35:59;14.20;1.00
6206;DHT22;3136;48.788;9.772;2023-09-12T03:38:25;14.20;1.00
6206;DHT22;3136;48.788;9.772;2023-09-12T03:40:50;14.20;1.00
6206;DHT22;3136;48.788;9.772;2023-09-12T03:43:16;14.20;1.00
6206;DHT22;3136;48.788;9.772;2023-09-12T03:45:41;14.20;1.00
6206;DHT22;3136;48.788;9.772;2023-09-12T03:48:07;14.20;1.00
6206;DHT22;3136;48.788;9.772;2023-09-12T03:50:33;14.10;1.00
6206;DHT22;3136;48.788;9.772;2023-09-12T03:52:58;14.30;1.00
6206;DHT22;3136;48.788;9.772;2023-09-12T03:55:24;14.10;1.00
6206;DHT22;3136;48.788;9.772;2023-09-12T03:57:49;14.10;1.00
6206;DHT22;3136;48.788;9.772;2023-09-12T04:00:15;14.10;1.00
6206;DHT22;3136;48.788;9.772;2023-09-12T04:02:41;14.10;1.00
6206;DHT22;3136;48.788;9.772;2023-09-12T04:05:07;14.10;1.00
6206;DHT22;3136;48.788;9.772;2023-09-12T04:07:32;14.00;1.00
6206;DHT22;3136;48.788;9.772;2023-09-12T04:09:58;14.00;1.00
6206;DHT22;3136;48.788;9.772;2023-09-12T04:12:23;14.00;1.00
6206;DHT22;3136;48.788;9.772;2023-09-12T04:14:50;14.00;1.00
6206;DHT22;3136;48.788;9.772;2023-09-12T04:17:16;14.00;1.00
6206;DHT22;3136;48.788;9.772;2023-09-12T04:19:42;14.00;1.00
6206;DHT22;3136;48.788;9.772;2023-09-12T04:22:07;13.90;1.00
6206;DHT22;3136;48.788;9.772;2023-09-12T04:24:33;13.90;1.00
6206;DHT22;3136;48.788;9.772;2023-09-12T04:26:59;14.00;1.00
6206;DHT22;3136;48.788;9.772;2023-09-12T04:29:24;13.80;1.00
6206;DHT22;3136;48.788;9.772;2023-09-12T04:31:50;13.90;1.00
6206;DHT22;3136;48.788;9.772;2023-09-12T04:34:18;13.90;1.00
6206;DHT22;3136;48.788;9.772;2023-09-12T04:36:43;13.90;1.00
6206;DHT22;3136;48.788;9.772;2023-09-12T04:39:09;13.90;1.00
6206;DHT22;3136;48.788;9.772;2023-09-12T04:41:34;13.90;1.00
6206;DHT22;3136;48.788;9.772;2023-09-12T04:44:00;13.90;1.00
6206;DHT22;3136;48.788;9.772;2023-09-12T04:46:27;13.90;1.00
6206;DHT22;3136;48.788;9.772;2023-09-12T04:48:53;13.90;1.00
6206;DHT22;3136;48.788;9.772;2023-09-12T04:51:18;13.90;1.00
6206;DHT22;3136;48.788;9.772;2023-09-12T04:53:44;13.90;1.00
6206;DHT22;3136;48.788;9.772;2023-09-12T04:56:10;13.90;1.00
6206;DHT22;3136;48.788;9.772;2023-09-12T04:58:35;13.80;1.00
6206;DHT22;3136;48.788;9.772;2023-09-12T05:01:01;13.80;1.00
6206;DHT22;3136;48.788;9.772;2023-09-12T05:03:27;13.80;1.00
6206;DHT22;3136;48.788;9.772;2023-09-12T05:05:53;13.80;1.00
6206;DHT22;3136;48.788;9.772;2023-09-12T05:08:19;13.80;1.00
6206;DHT22;3136;48.788;9.772;2023-09-12T05:10:45;13.80;1.00
6206;DHT22;3136;48.788;9.772;2023-09-12T05:13:10;13.80;1.00
6206;DHT22;3136;48.788;9.772;2023-09-12T05:15:37;13.80;1.00
6206;DHT22;3136;48.788;9.772;2023-09-12T05:18:05;13.90;1.00
6206;DHT22;3136;48.788;9.772;2023-09-12T05:20:30;13.90;1.00
6206;DHT22;3136;48.788;9.772;2023-09-12T05:22:56;13.90;1.00
6206;DHT22;3136;48.788;9.772;2023-09-12T05:25:22;13.90;1.00
6206;DHT22;3136;48.788;9.772;2023-09-12T05:27:47;13.90;1.00
6206;DHT22;3136;48.788;9.772;2023-09-12T05:30:13;13.90;1.00
6206;DHT22;3136;48.788;9.772;2023-09-12T05:32:40;13.90;1.00
6206;DHT22;3136;48.788;9.772;2023-09-12T05:35:06;14.00;1.00
6206;DHT22;3136;48.788;9.772;2023-09-12T05:37:31;14.00;1.00
6206;DHT22;3136;48.788;9.772;2023-09-12T05:39:57;14.10;1.00
6206;DHT22;3136;48.788;9.772;2023-09-12T05:42:22;14.10;1.00
6206;DHT22;3136;48.788;9.772;2023-09-12T05:44:48;14.10;1.00
6206;DHT22;3136;48.788;9.772;2023-09-12T05:47:15;14.10;1.00
6206;DHT22;3136;48.788;9.772;2023-09-12T05:49:41;14.20;1.00
6206;DHT22;3136;48.788;9.772;2023-09-12T05:52:06;14.30;1.00
6206;DHT22;3136;48.788;9.772;2023-09-12T05:54:32;15.40;1.00
6206;DHT22;3136;48.788;9.772;2023-09-12T05:56:58;14.50;1.00
6206;DHT22;3136;48.788;9.772;2023-09-12T05:59:23;14.70;1.00
6206;DHT22;3136;48.788;9.772;2023-09-12T06:01:49;14.70;1.00
6206;DHT22;3136;48.788;9.772;2023-09-12T06:04:14;14.80;1.00
6206;DHT22;3136;48.788;9.772;2023-09-12T06:06:40;14.90;1.00
6206;DHT22;3136;48.788;9.772;2023-09-12T06:09:05;14.90;1.00
6206;DHT22;3136;48.788;9.772;2023-09-12T06:11:31;15.00;1.00
6206;DHT22;3136;48.788;9.772;2023-09-12T06:13:57;15.10;1.00
6206;DHT22;3136;48.788;9.772;2023-09-12T06:16:22;15.30;1.00
6206;DHT22;3136;48.788;9.772;2023-09-12T06:18:48;15.30;1.00
6206;DHT22;3136;48.788;9.772;2023-09-12T06:21:14;15.60;1.00
6206;DHT22;3136;48.788;9.772;2023-09-12T06:23:40;15.50;1.00
6206;DHT22;3136;48.788;9.772;2023-09-12T06:26:05;15.70;1.00
6206;DHT22;3136;48.788;9.772;2023-09-12T06:28:31;15.80;99.90
6206;DHT22;3136;48.788;9.772;2023-09-12T06:30:57;15.90;99.90
6206;DHT22;3136;48.788;9.772;2023-09-12T06:33:27;16.00;99.90
6206;DHT22;3136;48.788;9.772;2023-09-12T06:35:54;16.10;99.90
6206;DHT22;3136;48.788;9.772;2023-09-12T06:38:21;16.20;50.80
6206;DHT22;3136;48.788;9.772;2023-09-12T06:40:47;16.40;5.90
6206;DHT22;3136;48.788;9.772;2023-09-12T06:43:13;16.50;1.00
6206;DHT22;3136;48.788;9.772;2023-09-12T06:45:41;16.70;1.00
6206;DHT22;3136;48.788;9.772;2023-09-12T06:48:06;16.80;99.90
6206;DHT22;3136;48.788;9.772;2023-09-12T06:50:32;16.80;99.90
6206;DHT22;3136;48.788;9.772;2023-09-12T06:52:57;16.90;1.00
6206;DHT22;3136;48.788;9.772;2023-09-12T06:55:24;17.00;1.00
6206;DHT22;3136;48.788;9.772;2023-09-12T06:57:49;17.10;1.00
6206;DHT22;3136;48.788;9.772;2023-09-12T07:00:15;17.20;99.90
6206;DHT22;3136;48.788;9.772;2023-09-12T07:02:42;17.30;1.00
6206;DHT22;3136;48.788;9.772;2023-09-12T07:05:08;17.40;1.00
6206;DHT22;3136;48.788;9.772;2023-09-12T07:07:33;17.60;1.00
6206;DHT22;3136;48.788;9.772;2023-09-12T07:09:59;17.70;99.90
6206;DHT22;3136;48.788;9.772;2023-09-12T07:12:25;17.80;1.00
6206;DHT22;3136;48.788;9.772;2023-09-12T07:14:51;18.00;73.30
6206;DHT22;3136;48.788;9.772;2023-09-12T07:17:17;18.10;1.00
6206;DHT22;3136;48.788;9.772;2023-09-12T07:19:43;18.20;1.00
6206;DHT22;3136;48.788;9.772;2023-09-12T07:22:09;18.20;99.90
6206;DHT22;3136;48.788;9.772;2023-09-12T07:24:34;18.50;99.90
6206;DHT22;3136;48.788;9.772;2023-09-12T07:27:00;18.70;1.00
6206;DHT22;3136;48.788;9.772;2023-09-12T07:29:25;18.80;99.90
6206;DHT22;3136;48.788;9.772;2023-09-12T07:31:54;18.90;1.00
6206;DHT22;3136;48.788;9.772;2023-09-12T07:34:20;18.90;1.00
6206;DHT22;3136;48.788;9.772;2023-09-12T07:36:46;19.20;1.00
6206;DHT22;3136;48.788;9.772;2023-09-12T07:39:12;19.30;1.00
6206;DHT22;3136;48.788;9.772;2023-09-12T07:41:38;19.40;1.00
6206;DHT22;3136;48.788;9.772;2023-09-12T07:44:03;19.40;1.00
6206;DHT22;3136;48.788;9.772;2023-09-12T07:46:30;19.60;99.90
6206;DHT22;3136;48.788;9.772;2023-09-12T07:48:56;19.80;29.90
6206;DHT22;3136;48.788;9.772;2023-09-12T07:51:22;20.00;81.50
6206;DHT22;3136;48.788;9.772;2023-09-12T07:53:48;20.30;1.00
6206;DHT22;3136;48.788;9.772;2023-09-12T07:56:13;20.40;99.90
6206;DHT22;3136;48.788;9.772;2023-09-12T07:58:39;20.60;99.90
6206;DHT22;3136;48.788;9.772;2023-09-12T08:01:06;20.60;99.90
6206;DHT22;3136;48.788;9.772;2023-09-12T08:03:33;20.90;99.90
6206;DHT22;3136;48.788;9.772;2023-09-12T08:05:59;21.00;99.90
6206;DHT22;3136;48.788;9.772;2023-09-12T08:08:24;21.10;99.90
6206;DHT22;3136;48.788;9.772;2023-09-12T08:10:50;21.20;99.90
6206;DHT22;3136;48.788;9.772;2023-09-12T08:13:16;21.20;99.90
6206;DHT22;3136;48.788;9.772;2023-09-12T08:15:41;21.10;99.90
6206;DHT22;3136;48.788;9.772;2023-09-12T08:18:07;21.30;99.90
6206;DHT22;3136;48.788;9.772;2023-09-12T08:20:32;21.40;99.90
6206;DHT22;3136;48.788;9.772;2023-09-12T08:22:58;21.60;1.00
6206;DHT22;3136;48.788;9.772;2023-09-12T08:25:23;21.80;1.00
6206;DHT22;3136;48.788;9.772;2023-09-12T08:27:50;22.00;1.00
6206;DHT22;3136;48.788;9.772;2023-09-12T08:30:16;22.00;99.90
6206;DHT22;3136;48.788;9.772;2023-09-12T08:32:42;22.20;99.90
6206;DHT22;3136;48.788;9.772;2023-09-12T08:35:13;22.30;99.90
6206;DHT22;3136;48.788;9.772;2023-09-12T08:37:42;22.40;99.90
6206;DHT22;3136;48.788;9.772;2023-09-12T08:40:09;22.50;99.90
6206;DHT22;3136;48.788;9.772;2023-09-12T08:42:40;22.50;99.90
6206;DHT22;3136;48.788;9.772;2023-09-12T08:47:35;22.70;99.90
6206;DHT22;3136;48.788;9.772;2023-09-12T08:50:03;22.80;99.90
6206;DHT22;3136;48.788;9.772;2023-09-12T08:52:29;22.90;99.90
6206;DHT22;3136;48.788;9.772;2023-09-12T08:54:55;23.10;99.90
6206;DHT22;3136;48.788;9.772;2023-09-12T08:57:21;23.20;99.90
6206;DHT22;3136;48.788;9.772;2023-09-12T08:59:47;23.30;99.90
6206;DHT22;3136;48.788;9.772;2023-09-12T09:02:14;23.40;99.90
6206;DHT22;3136;48.788;9.772;2023-09-12T09:04:40;23.60;99.90
6206;DHT22;3136;48.788;9.772;2023-09-12T09:07:07;23.70;99.90
6206;DHT22;3136;48.788;9.772;2023-09-12T09:09:34;23.80;99.90
6206;DHT22;3136;48.788;9.772;2023-09-12T09:11:59;24.00;99.90
6206;DHT22;3136;48.788;9.772;2023-09-12T09:14:25;24.30;99.90
6206;DHT22;3136;48.788;9.772;2023-09-12T09:16:50;24.40;99.90
6206;DHT22;3136;48.788;9.772;2023-09-12T09:19:16;24.50;99.90
6206;DHT22;3136;48.788;9.772;2023-09-12T09:21:43;24.70;99.90
6206;DHT22;3136;48.788;9.772;2023-09-12T09:24:13;24.80;99.90
6206;DHT22;3136;48.788;9.772;2023-09-12T09:26:51;24.90;99.90
6206;DHT22;3136;48.788;9.772;2023-09-12T09:29:24;25.00;99.90
6206;DHT22;3136;48.788;9.772;2023-09-12T09:31:51;25.10;99.90
6206;DHT22;3136;48.788;9.772;2023-09-12T09:34:19;25.30;99.90
6206;DHT22;3136;48.788;9.772;2023-09-12T09:36:48;25.50;99.90
6206;DHT22;3136;48.788;9.772;2023-09-12T09:39:14;25.60;99.90
6206;DHT22;3136;48.788;9.772;2023-09-12T09:41:41;25.70;99.90
6206;DHT22;3136;48.788;9.772;2023-09-12T09:44:10;25.80;99.90
6206;DHT22;3136;48.788;9.772;2023-09-12T09:46:37;26.10;99.90
6206;DHT22;3136;48.788;9.772;2023-09-12T09:49:02;26.00;99.90
6206;DHT22;3136;48.788;9.772;2023-09-12T09:51:30;26.20;82.80
6206;DHT22;3136;48.788;9.772;2023-09-12T09:53:56;26.40;68.30
6206;DHT22;3136;48.788;9.772;2023-09-12T09:56:24;26.40;47.10
6206;DHT22;3136;48.788;9.772;2023-09-12T09:58:55;26.70;79.10
6206;DHT22;3136;48.788;9.772;2023-09-12T10:01:22;26.70;39.70
6206;DHT22;3136;48.788;9.772;2023-09-12T10:03:49;26.90;45.50
6206;DHT22;3136;48.788;9.772;2023-09-12T10:06:17;27.10;48.00
6206;DHT22;3136;48.788;9.772;2023-09-12T10:08:44;27.20;13.60
6206;DHT22;3136;48.788;9.772;2023-09-12T10:11:14;27.40;16.10
6206;DHT22;3136;48.788;9.772;2023-09-12T10:13:49;27.60;18.50
6206;DHT22;3136;48.788;9.772;2023-09-12T10:16:16;27.90;23.90
6206;DHT22;3136;48.788;9.772;2023-09-12T10:18:49;28.50;2.40
6206;DHT22;3136;48.788;9.772;2023-09-12T10:21:30;29.30;1.00
6206;DHT22;3136;48.788;9.772;2023-09-12T10:23:59;30.10;1.00
6206;DHT22;3136;48.788;9.772;2023-09-12T10:26:28;30.70;1.00
6206;DHT22;3136;48.788;9.772;2023-09-12T10:28:56;31.40;1.00
6206;DHT22;3136;48.788;9.772;2023-09-12T10:31:24;31.90;1.00
6206;DHT22;3136;48.788;9.772;2023-09-12T10:33:51;32.00;1.00
6206;DHT22;3136;48.788;9.772;2023-09-12T10:36:17;32.20;1.00
6206;DHT22;3136;48.788;9.772;2023-09-12T10:38:45;32.50;1.00
6206;DHT22;3136;48.788;9.772;2023-09-12T10:41:12;32.80;1.00
6206;DHT22;3136;48.788;9.772;2023-09-12T10:43:43;32.90;1.00
6206;DHT22;3136;48.788;9.772;2023-09-12T10:46:11;32.90;1.00
6206;DHT22;3136;48.788;9.772;2023-09-12T10:48:37;32.80;1.00
6206;DHT22;3136;48.788;9.772;2023-09-12T10:51:06;33.00;1.00
6206;DHT22;3136;48.788;9.772;2023-09-12T10:53:33;33.40;1.00
6206;DHT22;3136;48.788;9.772;2023-09-12T11:01:44;34.20;1.00
6206;DHT22;3136;48.788;9.772;2023-09-12T11:06:46;35.40;1.00
6206;DHT22;3136;48.788;9.772;2023-09-12T11:11:45;35.60;1.00
6206;DHT22;3136;48.788;9.772;2023-09-12T11:14:15;35.30;1.00
6206;DHT22;3136;48.788;9.772;2023-09-12T11:19:47;35.70;1.00
6206;DHT22;3136;48.788;9.772;2023-09-12T11:22:30;35.90;1.00
6206;DHT22;3136;48.788;9.772;2023-09-12T11:24:57;36.00;1.00
6206;DHT22;3136;48.788;9.772;2023-09-12T11:27:32;35.90;1.00
6206;DHT22;3136;48.788;9.772;2023-09-12T11:30:04;35.90;1.00
6206;DHT22;3136;48.788;9.772;2023-09-12T11:32:32;36.20;1.00
6206;DHT22;3136;48.788;9.772;2023-09-12T11:34:59;36.20;1.00
6206;DHT22;3136;48.788;9.772;2023-09-12T11:37:26;36.20;1.00
6206;DHT22;3136;48.788;9.772;2023-09-12T11:39:53;36.10;1.00
6206;DHT22;3136;48.788;9.772;2023-09-12T11:42:20;36.20;1.00
6206;DHT22;3136;48.788;9.772;2023-09-12T11:44:49;36.20;1.00
6206;DHT22;3136;48.788;9.772;2023-09-12T11:47:15;36.20;1.00
6206;DHT22;3136;48.788;9.772;2023-09-12T11:49:41;36.20;1.00
6206;DHT22;3136;48.788;9.772;2023-09-12T11:52:14;36.20;1.00
6206;DHT22;3136;48.788;9.772;2023-09-12T11:54:42;36.00;1.00
6206;DHT22;3136;48.788;9.772;2023-09-12T11:57:10;35.80;1.00
6206;DHT22;3136;48.788;9.772;2023-09-12T11:59:38;35.40;1.00
6206;DHT22;3136;48.788;9.772;2023-09-12T12:02:09;35.20;1.00
6206;DHT22;3136;48.788;9.772;2023-09-12T12:04:36;35.20;1.00
6206;DHT22;3136;48.788;9.772;2023-09-12T12:07:03;35.10;1.00
6206;DHT22;3136;48.788;9.772;2023-09-12T12:09:32;35.10;1.00
6206;DHT22;3136;48.788;9.772;2023-09-12T12:12:11;35.20;1.00
6206;DHT22;3136;48.788;9.772;2023-09-12T12:14:39;35.00;1.00
6206;DHT22;3136;48.788;9.772;2023-09-12T12:17:07;34.90;1.00
6206;DHT22;3136;48.788;9.772;2023-09-12T12:19:33;35.20;1.00
6206;DHT22;3136;48.788;9.772;2023-09-12T12:21:59;35.70;1.00
6206;DHT22;3136;48.788;9.772;2023-09-12T12:24:24;36.10;1.00
6206;DHT22;3136;48.788;9.772;2023-09-12T12:26:50;36.60;1.00
6206;DHT22;3136;48.788;9.772;2023-09-12T12:29:18;37.20;1.00
6206;DHT22;3136;48.788;9.772;2023-09-12T12:31:44;37.50;1.00
6206;DHT22;3136;48.788;9.772;2023-09-12T12:34:09;37.90;1.00
6206;DHT22;3136;48.788;9.772;2023-09-12T12:36:41;38.40;1.00
6206;DHT22;3136;48.788;9.772;2023-09-12T12:39:10;38.70;1.00
6206;DHT22;3136;48.788;9.772;2023-09-12T12:41:37;39.00;1.00
6206;DHT22;3136;48.788;9.772;2023-09-12T12:44:03;39.40;1.00
6206;DHT22;3136;48.788;9.772;2023-09-12T12:46:30;39.20;1.00
6206;DHT22;3136;48.788;9.772;2023-09-12T12:48:55;38.90;1.00
6206;DHT22;3136;48.788;9.772;2023-09-12T12:51:23;38.90;1.00
6206;DHT22;3136;48.788;9.772;2023-09-12T12:53:53;39.40;1.00
6206;DHT22;3136;48.788;9.772;2023-09-12T12:56:26;39.80;1.00
6206;DHT22;3136;48.788;9.772;2023-09-12T12:58:56;40.00;1.00
6206;DHT22;3136;48.788;9.772;2023-09-12T13:01:28;40.40;1.00
6206;DHT22;3136;48.788;9.772;2023-09-12T13:03:53;40.60;1.00
6206;DHT22;3136;48.788;9.772;2023-09-12T13:06:21;40.10;1.00
6206;DHT22;3136;48.788;9.772;2023-09-12T13:08:48;39.60;1.00
6206;DHT22;3136;48.788;9.772;2023-09-12T13:11:14;39.10;1.00
6206;DHT22;3136;48.788;9.772;2023-09-12T13:13:41;38.80;1.00
6206;DHT22;3136;48.788;9.772;2023-09-12T13:16:13;38.80;1.00
6206;DHT22;3136;48.788;9.772;2023-09-12T13:18:39;38.60;1.00
6206;DHT22;3136;48.788;9.772;2023-09-12T13:21:05;38.60;1.00
6206;DHT22;3136;48.788;9.772;2023-09-12T13:23:34;38.80;1.00
6206;DHT22;3136;48.788;9.772;2023-09-12T13:25:59;38.90;1.00
6206;DHT22;3136;48.788;9.772;2023-09-12T13:28:25;39.20;1.00
6206;DHT22;3136;48.788;9.772;2023-09-12T13:30:52;39.30;1.00
6206;DHT22;3136;48.788;9.772;2023-09-12T13:33:17;39.10;1.00
6206;DHT22;3136;48.788;9.772;2023-09-12T13:35:43;38.90;1.00
6206;DHT22;3136;48.788;9.772;2023-09-12T13:38:09;38.90;1.00
6206;DHT22;3136;48.788;9.772;2023-09-12T13:40:38;38.80;1.00
6206;DHT22;3136;48.788;9.772;2023-09-12T13:43:08;38.70;1.00
6206;DHT22;3136;48.788;9.772;2023-09-12T13:45:34;38.80;1.00
6206;DHT22;3136;48.788;9.772;2023-09-12T13:48:00;39.00;1.00
6206;DHT22;3136;48.788;9.772;2023-09-12T13:50:26;39.00;1.00
6206;DHT22;3136;48.788;9.772;2023-09-12T13:52:55;38.80;1.00
6206;DHT22;3136;48.788;9.772;2023-09-12T13:55:22;38.80;1.00
6206;DHT22;3136;48.788;9.772;2023-09-12T13:57:47;38.80;1.00
6206;DHT22;3136;48.788;9.772;2023-09-12T14:00:13;38.80;1.00
6206;DHT22;3136;48.788;9.772;2023-09-12T14:02:39;38.80;1.00
6206;DHT22;3136;48.788;9.772;2023-09-12T14:05:05;39.10;1.00
6206;DHT22;3136;48.788;9.772;2023-09-12T14:07:30;39.00;1.00
6206;DHT22;3136;48.788;9.772;2023-09-12T14:09:56;38.70;1.00
6206;DHT22;3136;48.788;9.772;2023-09-12T14:12:23;37.70;1.00
6206;DHT22;3136;48.788;9.772;2023-09-12T14:14:49;36.90;1.00
6206;DHT22;3136;48.788;9.772;2023-09-12T14:17:15;36.30;1.00
6206;DHT22;3136;48.788;9.772;2023-09-12T14:19:40;36.10;1.00
6206;DHT22;3136;48.788;9.772;2023-09-12T14:22:06;36.20;1.00
6206;DHT22;3136;48.788;9.772;2023-09-12T14:24:32;35.80;1.00
6206;DHT22;3136;48.788;9.772;2023-09-12T14:26:57;35.10;1.00
6206;DHT22;3136;48.788;9.772;2023-09-12T14:29:23;34.60;1.00
6206;DHT22;3136;48.788;9.772;2023-09-12T14:31:52;34.30;1.00
6206;DHT22;3136;48.788;9.772;2023-09-12T14:34:28;34.00;1.00
6206;DHT22;3136;48.788;9.772;2023-09-12T14:36:55;33.60;1.00
6206;DHT22;3136;48.788;9.772;2023-09-12T14:39:21;33.10;1.00
6206;DHT22;3136;48.788;9.772;2023-09-12T14:41:47;32.70;1.00
6206;DHT22;3136;48.788;9.772;2023-09-12T14:44:18;32.10;1.00
6206;DHT22;3136;48.788;9.772;2023-09-12T14:46:43;31.60;1.00
6206;DHT22;3136;48.788;9.772;2023-09-12T14:49:09;31.00;1.00
6206;DHT22;3136;48.788;9.772;2023-09-12T14:51:36;30.40;1.00
6206;DHT22;3136;48.788;9.772;2023-09-12T14:54:05;29.90;1.00
6206;DHT22;3136;48.788;9.772;2023-09-12T14:56:32;29.40;1.00
6206;DHT22;3136;48.788;9.772;2023-09-12T14:58:57;29.00;1.00
6206;DHT22;3136;48.788;9.772;2023-09-12T15:01:23;28.60;1.00
6206;DHT22;3136;48.788;9.772;2023-09-12T15:03:50;28.40;1.00
6206;DHT22;3136;48.788;9.772;2023-09-12T15:06:15;28.00;1.00
6206;DHT22;3136;48.788;9.772;2023-09-12T15:08:41;27.90;1.00
6206;DHT22;3136;48.788;9.772;2023-09-12T15:11:07;27.60;15.80
6206;DHT22;3136;48.788;9.772;2023-09-12T15:13:32;27.60;17.70
6206;DHT22;3136;48.788;9.772;2023-09-12T15:15:58;27.50;13.90
6206;DHT22;3136;48.788;9.772;2023-09-12T15:18:23;25.70;14.20
6206;DHT22;3136;48.788;9.772;2023-09-12T15:20:51;27.20;32.10
6206;DHT22;3136;48.788;9.772;2023-09-12T15:23:18;26.90;45.20
6206;DHT22;3136;48.788;9.772;2023-09-12T15:25:44;26.70;87.00
6206;DHT22;3136;48.788;9.772;2023-09-12T15:28:09;26.50;99.90
6206;DHT22;3136;48.788;9.772;2023-09-12T15:30:35;26.30;99.90
6206;DHT22;3136;48.788;9.772;2023-09-12T15:33:00;26.10;99.90
6206;DHT22;3136;48.788;9.772;2023-09-12T15:35:26;26.00;99.90
6206;DHT22;3136;48.788;9.772;2023-09-12T15:37:51;25.90;99.90
6206;DHT22;3136;48.788;9.772;2023-09-12T15:40:17;25.70;99.90
6206;DHT22;3136;48.788;9.772;2023-09-12T15:42:42;25.60;99.90
6206;DHT22;3136;48.788;9.772;2023-09-12T15:45:09;26.70;99.90
6206;DHT22;3136;48.788;9.772;2023-09-12T15:47:35;25.40;99.90
6206;DHT22;3136;48.788;9.772;2023-09-12T15:50:01;25.40;99.90
6206;DHT22;3136;48.788;9.772;2023-09-12T15:52:27;25.30;99.90
6206;DHT22;3136;48.788;9.772;2023-09-12T15:54:52;25.20;99.90
6206;DHT22;3136;48.788;9.772;2023-09-12T15:57:18;25.10;99.90
6206;DHT22;3136;48.788;9.772;2023-09-12T15:59:43;25.10;99.90
6206;DHT22;3136;48.788;9.772;2023-09-12T16:02:09;25.00;99.90
6206;DHT22;3136;48.788;9.772;2023-09-12T16:04:34;24.90;99.90
6206;DHT22;3136;48.788;9.772;2023-09-12T16:07:00;24.90;99.90
6206;DHT22;3136;48.788;9.772;2023-09-12T16:09:25;24.80;99.90
6206;DHT22;3136;48.788;9.772;2023-09-12T16:11:51;24.80;99.90
6206;DHT22;3136;48.788;9.772;2023-09-12T16:14:16;24.70;99.90
6206;DHT22;3136;48.788;9.772;2023-09-12T16:16:42;24.60;99.90
6206;DHT22;3136;48.788;9.772;2023-09-12T16:19:08;24.60;99.90
6206;DHT22;3136;48.788;9.772;2023-09-12T16:21:34;24.50;99.90
6206;DHT22;3136;48.788;9.772;2023-09-12T16:24:00;24.50;1.00
6206;DHT22;3136;48.788;9.772;2023-09-12T16:26:26;24.30;1.00
6206;DHT22;3136;48.788;9.772;2023-09-12T16:28:52;24.30;1.00